Billings Logan International Airport Billings US
ICAO: KBIL
IATA: BIL
Category: Large
Scheduled Services: Yes

Elevation: 3652 ft
TransAlt. 18000 ft.

Airport Communications:
APP/DEP:119.2
ATIS:126.3
CLNC DEL:121.9
GND:121.9
GREAT FALLS RDO:122.55
TWR:124.2
UNICOM:122.95

KBIL Zoom In..

If Map Doesn't Load, Click Here

Runways:

(A) RW 07 length 5503 ft width 75 ft
---- / hdg 70

(B) RW 10L length 10521 ft width 150 ft
ILS 110.30 / hdg 98

(C) RW 10R length 3800 ft width 75 ft
---- / hdg 98

(D) RW 25 length 5503 ft width 75 ft
---- / hdg 250

(E) RW 28L length 3800 ft width 75 ft
---- / hdg 278

(F) RW 28R length 10521 ft width 150 ft
ILS 111.50 / hdg 278

Location; KBIL
Day. 23 / Time. 07.53 Zulu
* Altimeter: 29.92
* Temperature: 10° c. 50°f.
* Wind from: 320° Speed 10 kn.
Dewpoint: 07° c.
Visibility: 10 Statute Miles.
Clouds: Few 11000 ft.
Clouds: Broken 19000 ft.

KBIL 230753Z 32010KT 10SM FEW110 BKN190 10/07 A2992 RMK AO2 SLP107 T01000072


Wind From 320°
Speed 10 kn.

 
 
jpsmedia.com for Web Design worldairports.se 2018   terms of use